createdAt,value
2023-06-11T00:01:15.787Z,6.90
2023-06-11T00:04:04.157Z,7.70
2023-06-11T00:06:33.868Z,6.30
2023-06-11T00:09:02.291Z,6.10
2023-06-11T00:11:30.687Z,6.50
2023-06-11T00:13:59.079Z,5.80
2023-06-11T00:16:28.261Z,5.80
2023-06-11T00:18:56.675Z,5.00
2023-06-11T00:21:25.007Z,5.40
2023-06-11T00:23:53.511Z,5.50
2023-06-11T00:26:22.272Z,4.80
2023-06-11T00:28:50.851Z,4.60
2023-06-11T00:31:19.988Z,4.70
2023-06-11T00:33:48.449Z,5.30
2023-06-11T00:36:17.620Z,5.20
2023-06-11T00:38:47.467Z,5.10
2023-06-11T00:41:16.233Z,4.60
2023-06-11T00:43:44.602Z,4.90
2023-06-11T00:46:13.161Z,4.40
2023-06-11T00:48:41.748Z,4.60
2023-06-11T00:51:12.111Z,3.60
2023-06-11T00:53:40.645Z,4.00
2023-06-11T00:56:09.045Z,4.40
2023-06-11T00:58:37.570Z,4.90
2023-06-11T01:01:06.932Z,4.70
2023-06-11T01:03:36.191Z,4.60
2023-06-11T01:06:12.890Z,5.20
2023-06-11T01:08:42.427Z,4.90
2023-06-11T01:11:15.327Z,4.70
2023-06-11T01:13:48.129Z,4.70
2023-06-11T01:16:30.760Z,5.30
2023-06-11T01:19:18.480Z,5.10
2023-06-11T01:21:57.576Z,4.40
2023-06-11T01:24:54.709Z,4.70
2023-06-11T01:27:41.835Z,4.50
2023-06-11T01:30:18.698Z,4.60
2023-06-11T01:32:54.503Z,4.60
2023-06-11T01:35:28.529Z,4.80
2023-06-11T01:37:57.421Z,5.10
2023-06-11T01:40:32.747Z,4.90
2023-06-11T01:43:03.595Z,4.90
2023-06-11T01:45:34.544Z,4.90
2023-06-11T01:48:02.885Z,5.40
2023-06-11T01:50:32.385Z,5.30
2023-06-11T01:53:02.150Z,4.80
2023-06-11T01:55:31.389Z,5.00
2023-06-11T01:58:00.849Z,5.00
2023-06-11T02:00:29.360Z,4.30
2023-06-11T02:02:58.202Z,4.80
2023-06-11T02:05:26.657Z,4.60
2023-06-11T02:07:55.130Z,4.70
2023-06-11T02:10:23.835Z,5.00
2023-06-11T02:12:52.249Z,5.10
2023-06-11T02:15:21.793Z,4.90
2023-06-11T02:17:50.326Z,5.00
2023-06-11T02:20:19.173Z,5.00
2023-06-11T02:22:47.606Z,4.70
2023-06-11T02:25:17.141Z,5.20
2023-06-11T02:27:45.669Z,5.50
2023-06-11T02:30:14.534Z,5.40
2023-06-11T02:32:45.821Z,5.00
2023-06-11T02:35:14.618Z,5.10
2023-06-11T02:37:43.383Z,5.30
2023-06-11T02:40:12.518Z,5.60
2023-06-11T02:42:41.044Z,4.20
2023-06-11T02:45:10.139Z,4.70
2023-06-11T02:47:38.896Z,4.80
2023-06-11T02:50:07.936Z,4.50
2023-06-11T02:52:36.271Z,4.00
2023-06-11T02:55:05.152Z,4.30
2023-06-11T02:57:33.546Z,5.00
2023-06-11T03:00:02.179Z,4.60
2023-06-11T03:02:30.757Z,4.90
2023-06-11T03:04:59.171Z,4.50
2023-06-11T03:07:27.717Z,4.50
2023-06-11T03:09:56.082Z,4.20
2023-06-11T03:12:24.486Z,4.70
2023-06-11T03:14:52.854Z,4.30
2023-06-11T03:17:21.289Z,4.20
2023-06-11T03:19:49.763Z,4.40
2023-06-11T03:22:18.838Z,4.80
2023-06-11T03:24:47.393Z,4.10
2023-06-11T03:27:25.994Z,4.10
2023-06-11T03:29:54.398Z,3.80
2023-06-11T03:32:23.806Z,3.90
2023-06-11T03:34:52.693Z,4.40
2023-06-11T03:37:22.568Z,4.90
2023-06-11T03:39:53.786Z,4.30
2023-06-11T03:42:22.229Z,4.50
2023-06-11T03:44:51.481Z,4.60
2023-06-11T03:47:20.280Z,4.40
2023-06-11T03:49:50.600Z,4.20
2023-06-11T03:52:20.200Z,4.70
2023-06-11T03:54:48.654Z,4.10
2023-06-11T03:57:19.179Z,4.50
2023-06-11T04:02:16.215Z,4.30
2023-06-11T04:04:44.890Z,4.40
2023-06-11T04:07:13.348Z,3.80
2023-06-11T04:09:42.336Z,3.80
2023-06-11T04:12:11.338Z,4.30
2023-06-11T04:14:40.089Z,4.20
2023-06-11T04:17:09.383Z,4.10
2023-06-11T04:19:38.894Z,4.10
2023-06-11T04:22:08.651Z,4.00
2023-06-11T04:24:37.301Z,3.90
2023-06-11T04:27:08.331Z,4.50
2023-06-11T04:29:38.283Z,4.00
2023-06-11T04:32:08.407Z,3.40
2023-06-11T04:34:41.454Z,4.20
2023-06-11T04:37:10.777Z,3.90
2023-06-11T04:39:41.722Z,4.00
2023-06-11T04:42:10.235Z,4.10
2023-06-11T04:44:40.130Z,3.50
2023-06-11T04:47:09.635Z,4.30
2023-06-11T04:49:42.098Z,4.20
2023-06-11T04:52:11.503Z,3.90
2023-06-11T04:54:42.986Z,3.50
2023-06-11T04:57:15.037Z,3.70
2023-06-11T04:59:43.964Z,4.00
2023-06-11T05:02:12.804Z,3.60
2023-06-11T05:04:41.243Z,3.40
2023-06-11T05:07:10.797Z,3.80
2023-06-11T05:09:42.099Z,3.40
2023-06-11T05:12:13.606Z,3.20
2023-06-11T05:14:44.572Z,3.60
2023-06-11T05:17:13.933Z,3.50
2023-06-11T05:19:43.890Z,3.70
2023-06-11T05:22:13.465Z,3.70
2023-06-11T05:24:44.277Z,4.10
2023-06-11T05:29:44.916Z,3.90
2023-06-11T05:32:16.562Z,3.40
2023-06-11T05:34:45.486Z,3.20
2023-06-11T05:39:44.444Z,3.70
2023-06-11T05:42:12.884Z,3.60
2023-06-11T05:44:43.088Z,3.60
2023-06-11T05:47:12.273Z,3.30
2023-06-11T05:49:41.375Z,3.50
2023-06-11T05:52:10.569Z,3.70
2023-06-11T05:54:39.005Z,3.80
2023-06-11T05:57:24.810Z,3.40
2023-06-11T05:59:54.746Z,3.10
2023-06-11T06:02:24.563Z,3.30
2023-06-11T06:04:53.156Z,3.50
2023-06-11T06:07:21.715Z,3.30
2023-06-11T06:09:51.801Z,3.70
2023-06-11T06:12:20.226Z,3.00
2023-06-11T06:14:48.717Z,3.30
2023-06-11T06:17:17.216Z,3.30
2023-06-11T06:19:46.506Z,3.20
2023-06-11T06:22:17.108Z,3.30
2023-06-11T06:24:46.344Z,2.90
2023-06-11T06:27:15.487Z,3.40
2023-06-11T06:29:44.309Z,4.00
2023-06-11T06:32:13.017Z,3.90
2023-06-11T06:34:41.970Z,3.60
2023-06-11T06:37:13.165Z,3.40
2023-06-11T06:39:43.841Z,3.50
2023-06-11T06:42:12.264Z,3.10
2023-06-11T06:44:43.068Z,3.80
2023-06-11T06:47:11.716Z,3.30
2023-06-11T06:49:40.341Z,3.20
2023-06-11T06:52:10.831Z,3.60
2023-06-11T06:54:40.147Z,3.50
2023-06-11T06:57:08.764Z,3.50
2023-06-11T06:59:37.539Z,3.50
2023-06-11T07:02:09.804Z,3.60
2023-06-11T07:04:39.025Z,3.70
2023-06-11T07:07:07.569Z,3.60
2023-06-11T07:09:36.443Z,3.60
2023-06-11T07:12:06.450Z,3.30
2023-06-11T07:14:34.954Z,4.00
2023-06-11T07:17:04.473Z,3.90
2023-06-11T07:19:33.013Z,4.10
2023-06-11T07:22:02.428Z,3.70
2023-06-11T07:24:32.621Z,3.80
2023-06-11T07:27:01.717Z,4.00
2023-06-11T07:29:30.499Z,4.00
2023-06-11T07:31:59.261Z,3.90
2023-06-11T07:34:28.261Z,3.80
2023-06-11T07:36:56.702Z,4.00
2023-06-11T07:39:25.093Z,4.10
2023-06-11T07:41:53.676Z,5.20
2023-06-11T07:44:22.072Z,4.50
2023-06-11T07:46:50.948Z,4.80
2023-06-11T07:49:19.499Z,3.30
2023-06-11T07:51:48.282Z,3.80
2023-06-11T07:54:17.348Z,4.20
2023-06-11T07:56:48.068Z,4.00
2023-06-11T07:59:16.832Z,4.30
2023-06-11T08:01:45.286Z,4.30
2023-06-11T08:04:13.825Z,3.90
2023-06-11T08:06:42.288Z,4.00
2023-06-11T08:09:10.920Z,3.90
2023-06-11T08:11:42.737Z,4.20
2023-06-11T08:14:11.185Z,4.10
2023-06-11T08:16:39.596Z,4.30
2023-06-11T08:19:08.488Z,3.90
2023-06-11T08:21:37.078Z,3.90
2023-06-11T08:24:06.549Z,3.80
2023-06-11T08:26:35.370Z,4.20
2023-06-11T08:29:03.856Z,4.10
2023-06-11T08:31:33.015Z,4.00
2023-06-11T08:34:01.447Z,4.40
2023-06-11T08:36:29.970Z,4.40
2023-06-11T08:38:58.503Z,3.70
2023-06-11T08:41:30.445Z,4.10
2023-06-11T08:43:59.692Z,3.90
2023-06-11T08:46:35.199Z,4.00
2023-06-11T08:49:08.552Z,4.10
2023-06-11T08:51:39.076Z,4.00
2023-06-11T08:54:09.147Z,4.20
2023-06-11T08:59:07.803Z,4.50
2023-06-11T09:04:04.726Z,4.30
2023-06-11T09:06:35.723Z,4.30
2023-06-11T09:09:06.802Z,3.60
2023-06-11T09:11:39.335Z,3.80
2023-06-11T09:14:08.691Z,4.20
2023-06-11T09:16:48.085Z,3.90
2023-06-11T09:19:18.705Z,3.40
2023-06-11T09:21:52.813Z,3.90
2023-06-11T09:24:22.683Z,3.80
2023-06-11T09:26:56.813Z,3.80
2023-06-11T09:29:27.112Z,3.50
2023-06-11T09:32:19.537Z,3.80
2023-06-11T09:34:57.661Z,3.60
2023-06-11T09:37:26.691Z,3.70
2023-06-11T09:39:55.706Z,4.00
2023-06-11T09:42:28.342Z,3.70
2023-06-11T09:45:01.013Z,3.90
2023-06-11T09:47:32.861Z,3.90
2023-06-11T09:50:03.385Z,3.90
2023-06-11T09:52:33.963Z,4.50
2023-06-11T09:55:03.950Z,3.90
2023-06-11T10:00:02.274Z,4.00
2023-06-11T10:02:33.449Z,3.80
2023-06-11T10:05:03.026Z,3.90
2023-06-11T10:07:33.232Z,4.00
2023-06-11T10:10:01.865Z,3.80
2023-06-11T10:12:35.915Z,3.80
2023-06-11T10:15:08.263Z,3.70
2023-06-11T10:17:37.018Z,3.40
2023-06-11T10:20:07.135Z,3.60
2023-06-11T10:25:05.489Z,3.60
2023-06-11T10:27:39.313Z,3.50
2023-06-11T10:30:09.888Z,7.60
2023-06-11T10:32:51.619Z,4.50
2023-06-11T10:35:25.591Z,5.10
2023-06-11T10:38:04.300Z,4.20
2023-06-11T10:40:37.562Z,4.00
2023-06-11T10:43:22.192Z,3.50
2023-06-11T10:46:19.613Z,4.00
2023-06-11T10:48:55.945Z,3.70
2023-06-11T10:51:24.759Z,3.80
2023-06-11T10:53:58.866Z,3.60
2023-06-11T10:56:27.483Z,3.60
2023-06-11T10:58:56.927Z,4.10
2023-06-11T11:01:25.688Z,4.00
2023-06-11T11:03:54.721Z,3.90
2023-06-11T11:06:28.374Z,3.80
2023-06-11T11:08:58.010Z,4.50
2023-06-11T11:11:28.091Z,3.60
2023-06-11T11:16:30.535Z,3.80
2023-06-11T11:18:58.980Z,4.10
2023-06-11T11:21:31.077Z,3.80
2023-06-11T11:24:00.913Z,4.90
2023-06-11T11:26:29.648Z,4.00
2023-06-11T11:28:58.237Z,4.30
2023-06-11T11:31:26.986Z,3.80
2023-06-11T11:33:56.401Z,4.10
2023-06-11T11:36:24.965Z,4.20
2023-06-11T11:38:53.406Z,4.40
2023-06-11T11:41:25.915Z,4.10
2023-06-11T11:43:54.628Z,4.40
2023-06-11T11:46:25.052Z,3.80
2023-06-11T11:48:59.235Z,4.40
2023-06-11T11:51:30.787Z,3.90
2023-06-11T11:54:01.493Z,4.10
2023-06-11T11:56:36.520Z,4.00
2023-06-11T11:59:04.956Z,3.90
2023-06-11T12:01:38.212Z,3.50
2023-06-11T12:04:07.811Z,4.10
2023-06-11T12:06:37.681Z,3.80
2023-06-11T12:09:06.903Z,3.40
2023-06-11T12:11:35.467Z,3.70
2023-06-11T12:14:03.949Z,3.60
2023-06-11T12:16:33.719Z,3.50
2023-06-11T12:19:18.521Z,3.90
2023-06-11T12:21:52.560Z,4.00
2023-06-11T12:26:50.835Z,3.70
2023-06-11T12:29:20.633Z,3.60
2023-06-11T12:31:49.187Z,3.70
2023-06-11T12:34:17.953Z,3.60
2023-06-11T12:36:48.229Z,3.30
2023-06-11T12:41:46.337Z,3.70
2023-06-11T12:44:15.009Z,3.70
2023-06-11T12:46:43.524Z,3.50
2023-06-11T12:49:11.999Z,4.20
2023-06-11T12:51:43.676Z,4.00
2023-06-11T12:54:15.832Z,3.50
2023-06-11T12:56:44.537Z,3.70
2023-06-11T12:59:13.073Z,3.70
2023-06-11T13:01:41.646Z,3.60
2023-06-11T13:04:10.556Z,3.40
2023-06-11T13:06:39.108Z,3.50
2023-06-11T13:09:07.617Z,4.10
2023-06-11T13:11:37.319Z,3.30
2023-06-11T13:14:06.217Z,3.10
2023-06-11T13:16:34.829Z,3.00
2023-06-11T13:19:04.058Z,2.90
2023-06-11T13:21:32.892Z,2.80
2023-06-11T13:24:01.404Z,3.10
2023-06-11T13:26:31.632Z,2.70
2023-06-11T13:29:00.010Z,3.00
2023-06-11T13:31:28.635Z,4.40
2023-06-11T13:33:57.233Z,3.30
2023-06-11T13:36:25.776Z,3.00
2023-06-11T13:38:54.250Z,7.40
2023-06-11T13:41:22.776Z,7.80
2023-06-11T13:43:51.238Z,2.80
2023-06-11T13:46:19.792Z,3.00
2023-06-11T13:48:50.559Z,2.70
2023-06-11T13:51:19.823Z,3.20
2023-06-11T13:53:48.807Z,3.20
2023-06-11T13:56:17.786Z,3.30
2023-06-11T13:58:46.208Z,3.30
2023-06-11T14:01:14.669Z,3.40
2023-06-11T14:03:43.251Z,3.10
2023-06-11T14:06:11.879Z,3.10
2023-06-11T14:08:40.372Z,2.80
2023-06-11T14:11:14.570Z,2.90
2023-06-11T14:13:43.200Z,3.10
2023-06-11T14:16:12.452Z,3.70
2023-06-11T14:18:40.926Z,3.50
2023-06-11T14:21:09.453Z,3.00
2023-06-11T14:23:37.932Z,3.10
2023-06-11T14:26:07.788Z,3.20
2023-06-11T14:28:37.390Z,3.30
2023-06-11T14:31:08.571Z,3.00
2023-06-11T14:33:37.518Z,2.90
2023-06-11T14:36:07.614Z,3.50
2023-06-11T14:38:36.264Z,2.90
2023-06-11T14:41:04.778Z,2.90
2023-06-11T14:43:33.248Z,2.80
2023-06-11T14:46:01.723Z,2.60
2023-06-11T14:48:30.066Z,2.80
2023-06-11T14:50:58.466Z,2.70
2023-06-11T14:53:26.876Z,2.50
2023-06-11T14:55:55.316Z,2.90
2023-06-11T14:58:23.680Z,2.80
2023-06-11T15:00:52.118Z,2.60
2023-06-11T15:03:21.176Z,2.90
2023-06-11T15:05:49.738Z,2.60
2023-06-11T15:08:18.247Z,2.60
2023-06-11T15:10:46.725Z,2.80
2023-06-11T15:13:18.297Z,2.60
2023-06-11T15:15:46.940Z,2.80
2023-06-11T15:18:15.508Z,2.80
2023-06-11T15:20:44.126Z,2.90
2023-06-11T15:23:15.458Z,2.60
2023-06-11T15:25:43.861Z,3.20
2023-06-11T15:28:12.452Z,2.80
2023-06-11T15:30:40.846Z,2.50
2023-06-11T15:33:09.338Z,3.10
2023-06-11T15:35:37.746Z,3.20
2023-06-11T15:38:06.355Z,3.00
2023-06-11T15:40:34.859Z,2.70
2023-06-11T15:43:03.294Z,3.00
2023-06-11T15:45:31.696Z,3.00
2023-06-11T15:48:00.185Z,2.90
2023-06-11T15:50:28.709Z,2.80
2023-06-11T15:52:57.162Z,2.70
2023-06-11T15:55:26.094Z,2.70
2023-06-11T15:57:57.626Z,3.00
2023-06-11T16:02:56.273Z,2.50
2023-06-11T16:05:24.820Z,2.60
2023-06-11T16:07:53.209Z,2.70
2023-06-11T16:10:21.766Z,2.30
2023-06-11T16:12:50.216Z,2.80
2023-06-11T16:15:18.693Z,2.60
2023-06-11T16:17:48.141Z,2.60
2023-06-11T16:20:16.909Z,2.20
2023-06-11T16:22:45.344Z,2.30
2023-06-11T16:25:15.807Z,2.00
2023-06-11T16:27:44.742Z,2.40
2023-06-11T16:30:13.757Z,2.40
2023-06-11T16:32:43.774Z,2.00
2023-06-11T16:35:13.108Z,2.30
2023-06-11T16:37:41.950Z,2.20
2023-06-11T16:40:10.989Z,1.90
2023-06-11T16:42:39.533Z,2.00
2023-06-11T16:45:09.010Z,1.90
2023-06-11T16:47:37.679Z,1.90
2023-06-11T16:50:06.707Z,1.90
2023-06-11T16:52:36.787Z,2.00
2023-06-11T16:55:05.798Z,1.90
2023-06-11T16:57:34.200Z,2.20
2023-06-11T17:00:03.045Z,1.70
2023-06-11T17:02:33.404Z,1.70
2023-06-11T17:07:30.582Z,2.20
2023-06-11T17:09:59.196Z,2.10
2023-06-11T17:12:27.716Z,1.70
2023-06-11T17:14:56.172Z,1.80
2023-06-11T17:17:24.591Z,2.20
2023-06-11T17:19:52.968Z,1.70
2023-06-11T17:22:21.359Z,1.80
2023-06-11T17:24:51.578Z,1.80
2023-06-11T17:27:20.404Z,2.10
2023-06-11T17:29:48.831Z,2.40
2023-06-11T17:32:17.331Z,2.10
2023-06-11T17:34:46.484Z,2.10
2023-06-11T17:37:15.914Z,2.30
2023-06-11T17:39:44.611Z,2.30
2023-06-11T17:42:13.221Z,2.50
2023-06-11T17:44:41.570Z,2.50
2023-06-11T17:47:09.995Z,2.60
2023-06-11T17:49:38.337Z,2.80
2023-06-11T17:52:06.950Z,2.20
2023-06-11T17:54:36.273Z,2.80
2023-06-11T17:57:05.379Z,2.30
2023-06-11T17:59:33.937Z,2.60
2023-06-11T18:02:02.519Z,2.20
2023-06-11T18:04:31.293Z,2.30
2023-06-11T18:06:59.706Z,2.20
2023-06-11T18:09:28.162Z,2.00
2023-06-11T18:11:57.042Z,2.20
2023-06-11T18:14:25.772Z,2.40
2023-06-11T18:16:55.844Z,2.20
2023-06-11T18:19:24.468Z,2.20
2023-06-11T18:21:52.922Z,2.40
2023-06-11T18:24:21.746Z,2.30
2023-06-11T18:26:50.184Z,2.30
2023-06-11T18:29:18.593Z,2.30
2023-06-11T18:31:47.056Z,2.70
2023-06-11T18:34:17.312Z,2.30
2023-06-11T18:36:46.479Z,2.20
2023-06-11T18:39:15.001Z,2.30
2023-06-11T18:41:43.451Z,2.40
2023-06-11T18:44:12.245Z,2.40
2023-06-11T18:46:45.483Z,2.50
2023-06-11T18:49:14.009Z,2.20
2023-06-11T18:51:42.385Z,2.30
2023-06-11T18:54:11.619Z,2.20
2023-06-11T18:56:39.993Z,2.20
2023-06-11T18:59:08.652Z,2.50
2023-06-11T19:01:37.158Z,2.20
2023-06-11T19:04:05.808Z,2.30
2023-06-11T19:06:34.254Z,2.50
2023-06-11T19:09:02.713Z,2.50
2023-06-11T19:11:31.191Z,2.60
2023-06-11T19:13:59.579Z,2.60
2023-06-11T19:16:28.041Z,2.50
2023-06-11T19:18:56.583Z,2.30
2023-06-11T19:21:26.270Z,2.60
2023-06-11T19:23:54.892Z,2.40
2023-06-11T19:26:23.384Z,2.90
2023-06-11T19:28:51.801Z,2.80
2023-06-11T19:31:20.251Z,2.60
2023-06-11T19:33:48.660Z,2.90
2023-06-11T19:36:17.083Z,3.20
2023-06-11T19:38:45.514Z,2.90
2023-06-11T19:41:15.778Z,3.30
2023-06-11T19:43:44.447Z,3.00
2023-06-11T19:46:12.999Z,2.90
2023-06-11T19:48:41.746Z,2.60
2023-06-11T19:51:12.020Z,2.70
2023-06-11T19:53:42.259Z,2.80
2023-06-11T19:56:14.331Z,2.70
2023-06-11T19:58:42.747Z,2.70
2023-06-11T20:01:11.154Z,2.50
2023-06-11T20:03:39.670Z,2.70
2023-06-11T20:06:08.149Z,2.80
2023-06-11T20:08:36.591Z,2.80
2023-06-11T20:11:12.544Z,3.10
2023-06-11T20:13:46.011Z,2.60
2023-06-11T20:16:14.833Z,2.80
2023-06-11T20:18:43.733Z,3.10
2023-06-11T20:21:12.233Z,3.00
2023-06-11T20:23:40.710Z,2.50
2023-06-11T20:26:09.110Z,3.00
2023-06-11T20:28:37.571Z,2.90
2023-06-11T20:31:05.973Z,2.70
2023-06-11T20:33:36.220Z,2.80
2023-06-11T20:36:04.823Z,2.80
2023-06-11T20:38:33.260Z,2.90
2023-06-11T20:41:01.735Z,2.80
2023-06-11T20:43:30.185Z,2.90
2023-06-11T20:46:01.037Z,2.90
2023-06-11T20:48:37.935Z,3.20
2023-06-11T20:51:11.385Z,2.60
2023-06-11T20:53:39.877Z,2.50
2023-06-11T20:56:08.256Z,3.20
2023-06-11T20:58:36.656Z,2.80
2023-06-11T21:01:05.158Z,2.90
2023-06-11T21:03:33.589Z,3.10
2023-06-11T21:06:04.559Z,3.00
2023-06-11T21:08:32.934Z,2.90
2023-06-11T21:11:01.889Z,3.10
2023-06-11T21:13:30.647Z,3.10
2023-06-11T21:15:59.077Z,2.80
2023-06-11T21:18:27.478Z,3.40
2023-06-11T21:20:55.920Z,3.20
2023-06-11T21:23:24.376Z,2.80
2023-06-11T21:25:52.716Z,3.20
2023-06-11T21:28:21.175Z,3.00
2023-06-11T21:30:49.667Z,2.90
2023-06-11T21:33:18.298Z,3.10
2023-06-11T21:35:51.170Z,2.80
2023-06-11T21:38:19.962Z,2.80
2023-06-11T21:40:48.457Z,3.00
2023-06-11T21:43:23.207Z,2.80
2023-06-11T21:45:51.631Z,2.90
2023-06-11T21:48:20.096Z,2.90
2023-06-11T21:50:48.557Z,3.00
2023-06-11T21:53:18.673Z,3.30
2023-06-11T21:55:46.996Z,2.80
2023-06-11T21:58:15.492Z,3.00
2023-06-11T22:00:43.939Z,2.90
2023-06-11T22:03:12.349Z,3.10
2023-06-11T22:05:40.767Z,3.70
2023-06-11T22:08:09.122Z,3.20
2023-06-11T22:10:37.500Z,3.20
2023-06-11T22:13:05.851Z,2.80
2023-06-11T22:15:34.169Z,2.80
2023-06-11T22:18:05.669Z,3.70
2023-06-11T22:20:36.806Z,3.20
2023-06-11T22:23:06.316Z,3.10
2023-06-11T22:25:34.729Z,3.40
2023-06-11T22:28:03.249Z,2.90
2023-06-11T22:30:38.039Z,3.40
2023-06-11T22:33:16.405Z,3.50
2023-06-11T22:35:45.526Z,3.50
2023-06-11T22:38:13.926Z,3.10
2023-06-11T22:40:42.275Z,3.40
2023-06-11T22:43:11.758Z,3.10
2023-06-11T22:45:40.197Z,3.10
2023-06-11T22:48:08.700Z,3.10
2023-06-11T22:50:38.149Z,3.30
2023-06-11T22:53:06.527Z,3.20
2023-06-11T22:55:35.034Z,3.10
2023-06-11T22:58:03.397Z,3.20
2023-06-11T23:00:31.787Z,3.00
2023-06-11T23:03:01.728Z,3.00
2023-06-11T23:05:30.337Z,3.10
2023-06-11T23:07:59.498Z,3.20
2023-06-11T23:10:28.064Z,3.20
2023-06-11T23:12:56.462Z,2.90
2023-06-11T23:15:24.855Z,2.90
2023-06-11T23:17:54.824Z,3.00
2023-06-11T23:20:28.829Z,3.10
2023-06-11T23:22:58.437Z,3.10
2023-06-11T23:25:28.030Z,3.10
2023-06-11T23:27:56.733Z,3.20
2023-06-11T23:30:25.124Z,3.20
2023-06-11T23:32:54.523Z,3.10
2023-06-11T23:35:22.895Z,3.20
2023-06-11T23:37:54.148Z,3.10
2023-06-11T23:40:22.517Z,3.00
2023-06-11T23:42:51.569Z,3.00
2023-06-11T23:45:19.935Z,2.90
2023-06-11T23:47:48.332Z,2.90
2023-06-11T23:50:16.975Z,3.10
2023-06-11T23:52:45.503Z,3.10
2023-06-11T23:55:15.388Z,3.30
2023-06-11T23:57:46.193Z,3.00
